Terminal Aerodrome Forecast
Issued by NWS

Home | Current Version | Previous Version | Text Only | Print | Product List | Glossary On
Versions: 1 2 3 4 5 6 7 8 9 10 11 12 13 14 15 16 17 18 19 20 21 22 23 24 25 26 27 28 29 30 31 32
000
FTUS43 KPAH 241700
TAFOWB
TAF
KOWB 241720Z 2418/2518 26018G27KT P6SM SCT025 BKN035
     FM250000 25008KT P6SM SCT035 BKN070
      TEMPO 2505/2509 BKN030
     FM251100 26005KT P6SM SKC
     FM251400 27007KT P6SM SCT250=

USA.gov is the U.S. government's official web portal to all federal, state and local government web resources and services.